Time;durP1;ratioP1;P1;durP2;ratioP2;P2;SDS_P1;SDS_P2;PMS_P1;PMS_P2;Temp;Humidity;BMP_temperature;BMP_pressure;BME280_temperature;BME280_humidity;BME280_pressure;Samples;Min_cycle;Max_cycle;Signal;HPM_P1;HPM_P2
2023/10/02 00:01:53;;;;;;;18.50;12.07;;;15.80;99.90;;;;;;4972521;28;20639;-70
2023/10/02 00:04:20;;;;;;;17.07;10.00;;;15.70;99.90;;;;;;4973391;28;20170;-71
2023/10/02 00:06:46;;;;;;;18.73;10.67;;;15.70;99.90;;;;;;4972731;28;20232;-71
2023/10/02 00:09:13;;;;;;;17.83;10.37;;;15.70;99.90;;;;;;4971913;28;20560;-71
2023/10/02 00:11:39;;;;;;;21.33;10.83;;;15.70;99.90;;;;;;4972351;28;20192;-71
2023/10/02 00:14:19;;;;;;;17.00;9.83;;;15.60;99.90;;;;;;4973148;28;20216;-71
2023/10/02 00:16:58;;;;;;;23.63;10.87;;;15.60;99.90;;;;;;4972932;28;20276;-70
2023/10/02 00:19:39;;;;;;;15.40;10.30;;;15.60;99.90;;;;;;4972855;28;20670;-71
2023/10/02 00:22:07;;;;;;;17.20;9.57;;;15.60;99.90;;;;;;4972754;28;20699;-71
2023/10/02 00:24:38;;;;;;;18.47;10.87;;;15.60;99.90;;;;;;4972072;28;20177;-71
2023/10/02 00:27:09;;;;;;;15.23;9.73;;;15.60;99.90;;;;;;4968465;28;20174;-71
2023/10/02 00:29:50;;;;;;;16.93;9.73;;;15.60;99.90;;;;;;4972706;28;20284;-72
2023/10/02 00:32:19;;;;;;;20.77;10.50;;;15.50;99.90;;;;;;4972292;28;20264;-71
2023/10/02 00:34:47;;;;;;;18.13;9.77;;;15.50;99.90;;;;;;4972896;28;20204;-70
2023/10/02 00:37:13;;;;;;;18.40;10.87;;;15.50;99.90;;;;;;4972492;28;20245;-71
2023/10/02 00:39:41;;;;;;;18.77;9.83;;;15.60;99.90;;;;;;4972329;28;20601;-71
2023/10/02 00:42:28;;;;;;;15.33;10.50;;;15.60;99.90;;;;;;4971772;28;20539;-71
2023/10/02 00:44:56;;;;;;;16.63;10.13;;;15.60;99.90;;;;;;4965141;28;20303;-71
2023/10/02 00:47:41;;;;;;;18.27;10.03;;;15.60;99.90;;;;;;4972464;28;20669;-71
2023/10/02 00:50:19;;;;;;;17.63;9.70;;;15.50;99.90;;;;;;4972620;28;20588;-72
2023/10/02 00:52:59;;;;;;;15.37;9.93;;;15.50;99.90;;;;;;4971807;28;20555;-72
2023/10/02 00:55:32;;;;;;;15.13;9.73;;;15.50;99.90;;;;;;4968548;28;20675;-71
2023/10/02 00:57:59;;;;;;;19.03;10.80;;;15.50;99.90;;;;;;4972238;28;20181;-72
2023/10/02 01:00:35;;;;;;;18.73;10.57;;;15.40;99.90;;;;;;4971332;28;20205;-72
2023/10/02 01:03:04;;;;;;;19.83;11.20;;;15.40;99.90;;;;;;4971726;28;20181;-71
2023/10/02 01:05:41;;;;;;;17.30;10.07;;;15.50;99.90;;;;;;4972168;28;20264;-71
2023/10/02 01:08:42;;;;;;;20.57;10.40;;;15.50;99.90;;;;;;4966190;28;20267;-71
2023/10/02 01:11:08;;;;;;;16.10;10.37;;;15.50;99.90;;;;;;4965784;28;20576;-71
2023/10/02 01:13:35;;;;;;;19.83;10.53;;;15.50;99.90;;;;;;4971882;28;20260;-71
2023/10/02 01:16:09;;;;;;;19.40;9.90;;;15.50;99.90;;;;;;4972313;28;20201;-70
2023/10/02 01:18:38;;;;;;;20.63;10.83;;;15.50;99.90;;;;;;4971476;28;20181;-70
2023/10/02 01:21:12;;;;;;;21.83;10.70;;;15.50;99.90;;;;;;4972048;28;20657;-71
2023/10/02 01:24:09;;;;;;;17.47;9.97;;;15.40;99.90;;;;;;4971470;28;20248;-70
2023/10/02 01:26:37;;;;;;;19.67;10.63;;;15.40;99.90;;;;;;4971899;28;20182;-71
2023/10/02 01:29:04;;;;;;;18.07;10.57;;;15.30;99.90;;;;;;4972173;28;20279;-71
2023/10/02 01:31:41;;;;;;;17.73;10.10;;;15.30;99.90;;;;;;4971455;28;20173;-71
2023/10/02 01:34:06;;;;;;;16.27;10.50;;;15.30;99.90;;;;;;4969786;28;20339;-71
2023/10/02 01:36:33;;;;;;;16.63;10.37;;;15.30;99.90;;;;;;4973517;28;20280;-71
2023/10/02 01:39:15;;;;;;;19.90;10.47;;;15.30;99.90;;;;;;4975749;28;20212;-71
2023/10/02 01:41:42;;;;;;;16.83;10.77;;;15.20;99.90;;;;;;4975392;28;20292;-71
2023/10/02 01:44:11;;;;;;;19.23;10.40;;;15.20;99.90;;;;;;4975841;28;20178;-70
2023/10/02 01:46:50;;;;;;;19.30;10.87;;;15.20;99.90;;;;;;4975015;28;20255;-71
2023/10/02 01:49:25;;;;;;;16.37;9.13;;;15.20;99.90;;;;;;4975806;28;20677;-71
2023/10/02 01:52:01;;;;;;;16.53;10.17;;;15.10;99.90;;;;;;4972764;28;20185;-70
2023/10/02 01:54:29;;;;;;;17.63;10.20;;;15.10;99.90;;;;;;4975463;28;20208;-70
2023/10/02 01:56:55;;;;;;;17.50;10.17;;;15.10;99.90;;;;;;4975206;28;20186;-71
2023/10/02 01:59:21;;;;;;;17.03;10.50;;;15.10;99.90;;;;;;4975087;28;20633;-71
2023/10/02 02:01:57;;;;;;;17.57;10.97;;;15.10;99.90;;;;;;4974434;28;20181;-70
2023/10/02 02:04:32;;;;;;;16.70;10.93;;;15.10;99.90;;;;;;4975045;28;20173;-70
2023/10/02 02:07:01;;;;;;;17.47;11.13;;;15.10;99.90;;;;;;4975377;28;20173;-71
2023/10/02 02:09:30;;;;;;;18.97;10.23;;;15.10;99.90;;;;;;4974521;28;20202;-72
2023/10/02 02:12:44;;;;;;;19.73;10.27;;;15.10;99.90;;;;;;4974585;28;20177;-71
2023/10/02 02:14:52;;;;;;;15.83;10.30;;;15.10;99.90;;;;;;4972954;28;20210;-71
2023/10/02 02:17:27;;;;;;;18.43;11.27;;;15.10;99.90;;;;;;4975255;28;20173;-71
2023/10/02 02:19:59;;;;;;;20.60;11.20;;;15.10;99.90;;;;;;4975254;28;20200;-72
2023/10/02 02:22:26;;;;;;;20.07;11.23;;;15.10;99.90;;;;;;4975003;28;20201;-72
2023/10/02 02:24:53;;;;;;;17.03;10.90;;;15.20;99.90;;;;;;4974305;28;20220;-71
2023/10/02 02:27:19;;;;;;;23.10;12.30;;;15.20;99.90;;;;;;4974717;28;20182;-70
2023/10/02 02:29:49;;;;;;;19.43;11.30;;;15.30;99.90;;;;;;4975043;28;20228;-70
2023/10/02 02:32:36;;;;;;;22.17;11.27;;;15.20;99.90;;;;;;4975153;28;20222;-71
2023/10/02 02:35:03;;;;;;;19.13;10.90;;;15.20;99.90;;;;;;4975071;28;20201;-72
2023/10/02 02:37:28;;;;;;;20.90;11.47;;;15.20;99.90;;;;;;4974962;28;20200;-70
2023/10/02 02:40:21;;;;;;;20.53;10.97;;;15.20;99.90;;;;;;4974810;28;20189;-71
2023/10/02 02:42:41;;;;;;;17.50;10.37;;;15.20;99.90;;;;;;4973500;28;20658;-71
2023/10/02 02:45:24;;;;;;;18.33;11.20;;;15.10;99.90;;;;;;4975306;28;20637;-71
2023/10/02 02:47:54;;;;;;;19.40;10.83;;;15.20;99.90;;;;;;4973021;28;20201;-71
2023/10/02 02:50:28;;;;;;;16.80;10.73;;;15.10;99.90;;;;;;4974864;28;20216;-71
2023/10/02 02:55:38;;;;;;;16.80;10.33;;;15.10;99.90;;;;;;4973911;28;20216;-70
2023/10/02 02:58:05;;;;;;;20.77;11.17;;;15.10;99.90;;;;;;4974336;28;20181;-71
2023/10/02 03:00:31;;;;;;;17.90;10.40;;;15.10;99.90;;;;;;4970882;28;20205;-71
2023/10/02 03:03:00;;;;;;;18.67;11.47;;;14.90;99.90;;;;;;4974241;28;20285;-71
2023/10/02 03:05:38;;;;;;;19.50;10.77;;;14.90;99.90;;;;;;4974185;28;20182;-71
2023/10/02 03:08:05;;;;;;;22.57;10.83;;;15.00;99.90;;;;;;4974444;28;20557;-71
2023/10/02 03:10:39;;;;;;;20.07;11.10;;;15.00;99.90;;;;;;4974455;28;20683;-71
2023/10/02 03:13:08;;;;;;;22.03;11.10;;;14.90;99.90;;;;;;4973743;28;20185;-71
2023/10/02 03:15:47;;;;;;;20.50;11.50;;;14.90;99.90;;;;;;4973132;28;20402;-71
2023/10/02 03:18:23;;;;;;;17.90;11.33;;;14.90;99.90;;;;;;4974282;28;20184;-71
2023/10/02 03:20:54;;;;;;;19.67;10.80;;;14.90;99.90;;;;;;4973837;28;20576;-71
2023/10/02 03:23:20;;;;;;;19.13;11.77;;;14.80;99.90;;;;;;4973893;28;20559;-71
2023/10/02 03:25:47;;;;;;;17.57;9.80;;;14.80;99.90;;;;;;4973924;28;20185;-71
2023/10/02 03:28:28;;;;;;;16.67;10.57;;;14.80;99.90;;;;;;4973810;28;20649;-70
2023/10/02 03:30:55;;;;;;;17.80;10.77;;;14.80;99.90;;;;;;4973541;28;20746;-70
2023/10/02 03:33:21;;;;;;;20.00;10.87;;;14.80;99.90;;;;;;4973094;28;20181;-71
2023/10/02 03:35:58;;;;;;;17.67;11.00;;;14.80;99.90;;;;;;4973613;28;20213;-71
2023/10/02 03:38:26;;;;;;;18.27;11.27;;;14.70;99.90;;;;;;4973895;28;20177;-72
2023/10/02 03:40:59;;;;;;;19.17;11.50;;;14.70;99.90;;;;;;4972417;28;20552;-71
2023/10/02 03:43:34;;;;;;;17.57;10.83;;;14.70;99.90;;;;;;4973184;28;20646;-71
2023/10/02 03:46:06;;;;;;;20.60;11.43;;;14.70;99.90;;;;;;4973314;28;20271;-71
2023/10/02 03:48:36;;;;;;;20.00;11.27;;;14.60;99.90;;;;;;4973036;28;20181;-71
2023/10/02 03:51:07;;;;;;;19.47;11.83;;;14.60;99.90;;;;;;4968688;28;20205;-71
2023/10/02 03:53:34;;;;;;;19.67;11.73;;;14.50;99.90;;;;;;4969496;28;20186;-70
2023/10/02 03:58:49;;;;;;;21.90;11.17;;;14.50;99.90;;;;;;4971487;28;20205;-71
2023/10/02 04:01:17;;;;;;;19.33;11.50;;;14.60;99.90;;;;;;4972930;28;20193;-71
2023/10/02 04:06:42;;;;;;;28.60;12.73;;;14.60;99.90;;;;;;4966972;28;20185;-71
2023/10/02 04:09:13;;;;;;;24.27;12.57;;;14.60;99.90;;;;;;4973302;28;20177;-71
2023/10/02 04:11:42;;;;;;;19.37;11.73;;;14.60;99.90;;;;;;4972460;28;20306;-72
2023/10/02 04:14:17;;;;;;;22.23;12.87;;;14.60;99.90;;;;;;4972518;28;20228;-72
2023/10/02 04:16:48;;;;;;;23.67;13.17;;;14.60;99.90;;;;;;4972811;28;20560;-72
2023/10/02 04:19:23;;;;;;;22.23;12.43;;;14.60;99.90;;;;;;4972970;28;20189;-72
2023/10/02 04:21:51;;;;;;;24.63;12.73;;;14.60;99.90;;;;;;4972872;28;20235;-70
2023/10/02 04:24:23;;;;;;;27.00;13.47;;;14.60;99.90;;;;;;4972237;28;20200;-70
2023/10/02 04:26:54;;;;;;;22.93;12.90;;;14.50;99.90;;;;;;4972968;28;20182;-71
2023/10/02 04:29:26;;;;;;;24.27;12.80;;;14.50;99.90;;;;;;4972632;28;20260;-71
2023/10/02 04:32:12;;;;;;;26.83;13.33;;;14.50;99.90;;;;;;4971275;28;20177;-71
2023/10/02 04:34:46;;;;;;;28.17;13.63;;;14.50;99.90;;;;;;4972694;28;20188;-70
2023/10/02 04:37:22;;;;;;;27.70;13.20;;;14.50;99.90;;;;;;4971799;28;20264;-70
2023/10/02 04:42:57;;;;;;;21.10;13.03;;;14.50;99.90;;;;;;4971675;28;20181;-71
2023/10/02 04:45:21;;;;;;;23.50;13.07;;;14.40;99.90;;;;;;4972576;28;20181;-71
2023/10/02 04:47:54;;;;;;;23.53;12.80;;;14.40;99.90;;;;;;4972191;28;20588;-70
2023/10/02 04:52:56;;;;;;;29.10;13.87;;;14.40;99.90;;;;;;4972089;28;20185;-71
2023/10/02 04:55:41;;;;;;;23.37;12.90;;;14.30;99.90;;;;;;4972768;28;20208;-70
2023/10/02 05:03:30;;;;;;;18.53;11.70;;;14.40;99.90;;;;;;4972184;28;20213;-71
2023/10/02 05:06:00;;;;;;;19.93;12.03;;;14.40;99.90;;;;;;4971838;28;20712;-70
2023/10/02 05:08:34;;;;;;;20.13;11.93;;;14.40;99.90;;;;;;4972108;28;20554;-72
2023/10/02 05:11:06;;;;;;;22.10;11.67;;;14.40;99.90;;;;;;4971440;28;20213;-71
2023/10/02 05:13:59;;;;;;;19.87;11.93;;;14.40;99.90;;;;;;4972146;28;20227;-71
2023/10/02 05:16:33;;;;;;;18.67;12.13;;;14.40;99.90;;;;;;4971486;28;20295;-70
2023/10/02 05:18:59;;;;;;;19.33;11.47;;;14.40;99.90;;;;;;4972110;28;20213;-71
2023/10/02 05:24:27;;;;;;;19.27;12.47;;;14.40;99.90;;;;;;4945233;29;20169;-71
2023/10/02 05:26:53;;;;;;;20.10;11.23;;;14.40;99.90;;;;;;4967933;28;20185;-71
2023/10/02 05:29:36;;;;;;;24.67;12.37;;;14.40;99.90;;;;;;4972076;28;20700;-71
2023/10/02 05:32:19;;;;;;;18.87;10.83;;;14.40;99.90;;;;;;4967392;28;20276;-71
2023/10/02 05:34:58;;;;;;;20.40;11.30;;;14.50;99.90;;;;;;4972049;28;20198;-70
2023/10/02 05:37:51;;;;;;;15.47;10.53;;;14.40;99.90;;;;;;4972129;28;20177;-71
2023/10/02 05:50:52;;;;;;;19.60;12.23;;;14.40;99.90;;;;;;4971776;28;20201;-70
2023/10/02 05:53:19;;;;;;;24.20;12.67;;;14.40;99.90;;;;;;4971061;28;20174;-71
2023/10/02 05:55:56;;;;;;;18.40;11.53;;;14.40;99.90;;;;;;4963182;28;20626;-71
2023/10/02 05:58:32;;;;;;;20.33;12.40;;;14.40;99.90;;;;;;4969859;28;20200;-70
2023/10/02 06:01:06;;;;;;;21.23;12.17;;;14.40;99.90;;;;;;4971287;28;20212;-71
2023/10/02 06:03:34;;;;;;;20.90;11.73;;;14.50;99.90;;;;;;4971489;28;20220;-71
2023/10/02 06:06:21;;;;;;;19.40;11.80;;;14.50;99.90;;;;;;4970911;28;20186;-70
2023/10/02 06:08:48;;;;;;;22.53;11.50;;;14.50;99.90;;;;;;4971710;28;20193;-71
2023/10/02 06:11:28;;;;;;;17.53;11.03;;;14.60;99.90;;;;;;4971279;28;20650;-71
2023/10/02 06:13:55;;;;;;;18.60;10.87;;;14.60;99.90;;;;;;4971800;28;20669;-71
2023/10/02 06:16:30;;;;;;;21.83;11.20;;;14.70;99.90;;;;;;4970260;28;20213;-71
2023/10/02 06:19:02;;;;;;;22.17;12.20;;;14.70;99.90;;;;;;4971407;28;20184;-69
2023/10/02 06:21:33;;;;;;;20.97;11.10;;;14.80;99.90;;;;;;4970675;28;20225;-72
2023/10/02 06:23:59;;;;;;;22.77;11.43;;;14.90;99.90;;;;;;4972534;28;20174;-71
2023/10/02 06:26:29;;;;;;;18.97;10.87;;;14.90;99.90;;;;;;4975222;28;20622;-72
2023/10/02 06:29:16;;;;;;;20.50;11.43;;;15.00;99.90;;;;;;4974875;28;20169;-71
2023/10/02 06:31:50;;;;;;;22.27;11.83;;;15.10;99.90;;;;;;4974986;28;20170;-71
2023/10/02 06:34:17;;;;;;;20.27;10.53;;;15.10;99.90;;;;;;4969825;28;20192;-72
2023/10/02 06:36:48;;;;;;;17.27;10.77;;;15.30;99.90;;;;;;4974587;28;20233;-71
2023/10/02 06:39:21;;;;;;;21.17;10.80;;;15.30;99.90;;;;;;4974455;28;20211;-72
2023/10/02 06:41:47;;;;;;;15.87;10.27;;;15.40;99.90;;;;;;4974729;28;20232;-71
2023/10/02 06:44:15;;;;;;;18.40;10.67;;;15.50;99.90;;;;;;4974906;28;20664;-74
2023/10/02 06:46:55;;;;;;;19.73;10.93;;;15.60;99.90;;;;;;4974524;28;20189;-71
2023/10/02 06:49:21;;;;;;;20.50;9.80;;;15.80;99.90;;;;;;4968776;28;20260;-72
2023/10/02 06:51:49;;;;;;;19.87;10.60;;;16.00;99.90;;;;;;4971593;28;20192;-71
2023/10/02 06:54:18;;;;;;;18.17;10.90;;;16.10;99.90;;;;;;4974494;28;20193;-72
2023/10/02 06:56:44;;;;;;;18.73;10.20;;;16.30;99.90;;;;;;4973578;28;20216;-72
2023/10/02 06:59:10;;;;;;;15.33;9.30;;;16.50;99.90;;;;;;4973305;28;20185;-72
2023/10/02 07:01:36;;;;;;;18.70;10.07;;;16.80;99.90;;;;;;4973733;28;20243;-71
2023/10/02 07:04:09;;;;;;;16.10;9.60;;;17.00;99.90;;;;;;4974565;28;20184;-72
2023/10/02 07:06:39;;;;;;;14.67;9.90;;;17.20;99.90;;;;;;4974857;28;20185;-71
2023/10/02 07:09:10;;;;;;;17.50;9.17;;;17.40;99.90;;;;;;4973301;28;20178;-71
2023/10/02 07:11:45;;;;;;;17.67;9.43;;;17.70;99.90;;;;;;4971245;28;20193;-71
2023/10/02 07:14:12;;;;;;;15.30;9.30;;;17.90;99.90;;;;;;4971798;28;20672;-72
2023/10/02 07:16:38;;;;;;;18.97;9.80;;;18.20;99.90;;;;;;4973296;28;20208;-71
2023/10/02 07:19:05;;;;;;;18.37;9.20;;;18.40;99.90;;;;;;4972067;28;20178;-72
2023/10/02 07:21:33;;;;;;;15.13;8.63;;;18.90;99.90;;;;;;4971457;28;20225;-71
2023/10/02 07:24:21;;;;;;;16.97;8.67;;;19.20;99.90;;;;;;4968966;28;20304;-71
2023/10/02 07:26:51;;;;;;;17.43;9.37;;;19.50;99.90;;;;;;4975782;28;20229;-72
2023/10/02 07:29:37;;;;;;;18.13;9.05;;;19.70;99.90;;;;;;4970757;28;20221;-70
2023/10/02 07:32:05;;;;;;;14.88;9.25;;;19.80;99.90;;;;;;4969482;28;20649;-72
2023/10/02 07:34:31;;;;;;;17.38;8.88;;;20.00;99.90;;;;;;4972057;28;20479;-73
2023/10/02 07:36:59;;;;;;;15.43;9.57;;;20.30;99.90;;;;;;4972661;28;20182;-71
2023/10/02 07:39:38;;;;;;;15.48;8.75;;;20.70;99.90;;;;;;4969072;28;20215;-72
2023/10/02 07:42:04;;;;;;;17.13;9.40;;;21.00;99.90;;;;;;4967119;28;20645;-72
2023/10/02 07:44:39;;;;;;;15.23;8.80;;;21.40;99.90;;;;;;4977949;28;20173;-70
2023/10/02 07:47:21;;;;;;;17.40;9.38;;;21.70;99.90;;;;;;4973017;28;20553;-71
2023/10/02 07:49:48;;;;;;;18.35;9.68;;;22.10;99.90;;;;;;4969704;28;20201;-71
2023/10/02 07:52:26;;;;;;;16.20;9.65;;;22.60;99.90;;;;;;4973178;28;20616;-72
2023/10/02 07:54:59;;;;;;;17.77;9.98;;;23.10;99.90;;;;;;4973671;28;20803;-72
2023/10/02 07:57:32;;;;;;;15.88;9.55;;;23.40;99.90;;;;;;4973321;28;20178;-71
2023/10/02 08:00:01;;;;;;;21.02;9.88;;;23.50;99.90;;;;;;4973178;28;20202;-72
2023/10/02 08:02:30;;;;;;;16.20;9.95;;;23.40;99.90;;;;;;4970103;28;20207;-72
2023/10/02 08:04:59;;;;;;;17.58;9.23;;;23.40;99.90;;;;;;4972254;28;20185;-70
2023/10/02 08:07:25;;;;;;;16.00;9.43;;;23.60;99.90;;;;;;4973860;28;20285;-73
2023/10/02 08:09:52;;;;;;;15.50;9.30;;;23.70;99.90;;;;;;4971658;28;20205;-73
2023/10/02 08:12:30;;;;;;;18.08;9.07;;;24.10;99.90;;;;;;4970561;28;20181;-71
2023/10/02 08:15:03;;;;;;;16.60;9.65;;;24.40;99.90;;;;;;4968890;28;20212;-70
2023/10/02 08:20:15;;;;;;;14.80;8.70;;;25.10;99.90;;;;;;4972925;28;20217;-71
2023/10/02 08:22:45;;;;;;;15.75;8.85;;;25.20;99.90;;;;;;4971491;28;20177;-71
2023/10/02 08:25:14;;;;;;;19.80;9.77;;;25.20;99.90;;;;;;4971259;28;20587;-71
2023/10/02 08:27:45;;;;;;;16.58;9.82;;;25.10;99.90;;;;;;4971662;28;20547;-70
2023/10/02 08:33:18;;;;;;;18.05;9.18;;;24.90;99.90;;;;;;4972336;28;20672;-72
2023/10/02 08:35:47;;;;;;;18.33;9.60;;;25.00;99.90;;;;;;4971794;28;20220;-71
2023/10/02 08:38:22;;;;;;;16.55;9.13;;;24.90;99.90;;;;;;4963989;28;20268;-71
2023/10/02 08:40:57;;;;;;;14.77;8.85;;;24.90;99.90;;;;;;4972872;28;20625;-71
2023/10/02 08:43:27;;;;;;;18.52;9.48;;;25.00;99.90;;;;;;4972742;28;20165;-72
2023/10/02 08:45:53;;;;;;;16.70;8.95;;;25.10;99.90;;;;;;4971950;28;20256;-71
2023/10/02 08:48:20;;;;;;;18.02;9.13;;;25.30;99.90;;;;;;4972933;28;20180;-72
2023/10/02 08:50:47;;;;;;;16.95;9.32;;;25.30;99.90;;;;;;4963755;28;20635;-72
2023/10/02 08:53:23;;;;;;;17.85;10.02;;;25.30;99.90;;;;;;4972353;28;20185;-72
2023/10/02 08:56:24;;;;;;;24.92;9.90;;;25.30;99.90;;;;;;4972670;28;20600;-72
2023/10/02 09:01:34;;;;;;;18.75;9.57;;;25.70;99.90;;;;;;4967122;28;20184;-71
2023/10/02 09:04:22;;;;;;;19.67;9.52;;;25.90;99.90;;;;;;4972259;28;20646;-72
2023/10/02 09:06:49;;;;;;;15.52;8.85;;;26.10;99.90;;;;;;4971338;28;20185;-71
2023/10/02 09:11:52;;;;;;;20.80;10.15;;;26.50;99.90;;;;;;4972087;28;20264;-71
2023/10/02 09:16:47;;;;;;;16.25;8.85;;;26.90;99.90;;;;;;4972192;28;20316;-71
2023/10/02 09:19:30;;;;;;;14.57;9.25;;;27.20;99.90;;;;;;4972280;28;20798;-73
2023/10/02 09:22:11;;;;;;;18.60;9.05;;;27.50;99.90;;;;;;4970000;28;20604;-71
2023/10/02 09:24:41;;;;;;;17.98;10.30;;;27.70;99.90;;;;;;4972311;28;20191;-72
2023/10/02 09:27:28;;;;;;;18.33;10.30;;;28.00;99.90;;;;;;4969772;28;20221;-72
2023/10/02 09:30:15;;;;;;;15.88;8.77;;;28.30;99.90;;;;;;4963078;28;20314;-71
2023/10/02 09:32:47;;;;;;;15.05;9.57;;;28.60;99.90;;;;;;4972143;28;20186;-72
2023/10/02 09:35:40;;;;;;;16.38;8.95;;;28.60;99.90;;;;;;4971852;28;20335;-71
2023/10/02 09:38:06;;;;;;;16.52;9.63;;;28.70;99.90;;;;;;4969539;28;20334;-71
2023/10/02 09:43:33;;;;;;;17.27;9.07;;;29.00;99.90;;;;;;4964075;28;20197;-71
2023/10/02 09:46:06;;;;;;;20.80;10.35;;;29.00;99.90;;;;;;4970232;28;20250;-71
2023/10/02 09:48:52;;;;;;;21.50;10.32;;;28.80;99.90;;;;;;4960681;28;20189;-71
2023/10/02 09:51:27;;;;;;;15.60;9.43;;;28.70;99.90;;;;;;4971846;28;20273;-71
2023/10/02 09:54:04;;;;;;;17.88;10.25;;;28.70;99.90;;;;;;4972100;28;20236;-70
2023/10/02 09:57:04;;;;;;;18.17;9.27;;;28.60;99.90;;;;;;4972685;28;20284;-71
2023/10/02 09:59:45;;;;;;;18.35;9.98;;;28.20;99.90;;;;;;4975694;28;20212;-70
2023/10/02 10:02:57;;;;;;;18.83;9.68;;;27.90;99.90;;;;;;4975547;28;20197;-71
2023/10/02 10:08:18;;;;;;;19.73;9.40;;;27.80;99.90;;;;;;4975564;28;20197;-71
2023/10/02 10:10:57;;;;;;;18.08;9.20;;;27.90;99.90;;;;;;4975780;28;20197;-73
2023/10/02 10:13:46;;;;;;;19.02;10.20;;;27.80;99.90;;;;;;4973833;28;20185;-70
2023/10/02 10:16:20;;;;;;;21.42;9.50;;;27.60;99.90;;;;;;4972478;28;20213;-71
2023/10/02 10:19:26;;;;;;;18.17;10.20;;;27.60;99.90;;;;;;4970223;28;20231;-71
2023/10/02 10:21:57;;;;;;;19.63;9.52;;;27.50;99.90;;;;;;4968558;28;20193;-71
2023/10/02 10:24:31;;;;;;;16.55;9.50;;;27.40;99.90;;;;;;4973559;28;20188;-73
2023/10/02 10:26:57;;;;;;;18.33;10.38;;;27.30;99.90;;;;;;4973247;28;20189;-70
2023/10/02 10:29:41;;;;;;;23.63;11.95;;;27.20;99.90;;;;;;4973153;28;20312;-72
2023/10/02 10:32:23;;;;;;;22.05;12.18;;;27.10;99.90;;;;;;4971582;28;20199;-71
2023/10/02 10:35:11;;;;;;;17.70;9.70;;;27.10;99.90;;;;;;4973770;28;20530;-72
2023/10/02 10:37:46;;;;;;;17.27;10.02;;;27.00;99.90;;;;;;4972771;28;20256;-71
2023/10/02 10:40:43;;;;;;;16.35;9.38;;;27.00;99.90;;;;;;4973424;28;20732;-72
2023/10/02 10:43:12;;;;;;;24.80;11.05;;;26.90;99.90;;;;;;4965575;28;20186;-70
2023/10/02 10:45:39;;;;;;;18.75;9.55;;;26.80;99.90;;;;;;4969035;28;20325;-71
2023/10/02 10:48:18;;;;;;;17.92;10.48;;;26.90;99.90;;;;;;4970385;28;20201;-71
2023/10/02 10:50:57;;;;;;;17.23;10.18;;;27.00;99.90;;;;;;4974714;28;20289;-71
2023/10/02 10:53:26;;;;;;;17.75;10.40;;;27.00;99.90;;;;;;4974599;28;20268;-71
2023/10/02 10:56:27;;;;;;;22.13;9.80;;;27.00;99.90;;;;;;4974391;28;20201;-71
2023/10/02 10:59:10;;;;;;;17.75;10.02;;;27.10;99.90;;;;;;4966255;28;20195;-71
2023/10/02 11:02:09;;;;;;;16.40;9.88;;;27.30;99.90;;;;;;4955451;28;20644;-71
2023/10/02 11:04:40;;;;;;;20.02;9.57;;;27.40;99.90;;;;;;4955315;28;20278;-70
2023/10/02 11:07:29;;;;;;;19.67;9.98;;;27.60;99.90;;;;;;4959651;28;20182;-70
2023/10/02 11:12:56;;;;;;;17.23;9.65;;;27.70;99.90;;;;;;4964677;28;20205;-69
2023/10/02 11:18:18;;;;;;;18.60;9.93;;;27.80;99.90;;;;;;4971544;28;20184;-71
2023/10/02 11:20:49;;;;;;;19.10;9.75;;;27.80;99.90;;;;;;4974208;28;20248;-71
2023/10/02 11:23:41;;;;;;;18.50;10.32;;;27.80;99.90;;;;;;4973729;28;20201;-71
2023/10/02 11:26:11;;;;;;;19.45;10.50;;;28.00;99.90;;;;;;4973903;28;20181;-70
2023/10/02 11:28:39;;;;;;;17.08;8.95;;;28.20;99.90;;;;;;4973454;28;20640;-70
2023/10/02 11:31:29;;;;;;;19.77;11.55;;;28.20;99.90;;;;;;4961050;28;20261;-70
2023/10/02 11:34:13;;;;;;;22.13;9.75;;;28.30;99.90;;;;;;4972812;28;20228;-71
2023/10/02 11:36:50;;;;;;;16.65;9.35;;;28.50;99.90;;;;;;4972313;28;20224;-71
2023/10/02 11:39:16;;;;;;;22.50;10.00;;;28.60;99.90;;;;;;4972827;28;20205;-71
2023/10/02 11:41:43;;;;;;;19.58;9.27;;;28.70;99.90;;;;;;4966676;28;20261;-71
2023/10/02 11:44:12;;;;;;;15.35;9.27;;;28.80;99.90;;;;;;4969020;28;20178;-71
2023/10/02 11:46:40;;;;;;;17.27;9.77;;;28.90;99.90;;;;;;4973045;28;20712;-72
2023/10/02 11:49:06;;;;;;;17.05;9.55;;;28.90;99.90;;;;;;4971829;28;20370;-72
2023/10/02 11:51:33;;;;;;;19.98;10.52;;;29.00;99.90;;;;;;4973741;28;20196;-71
2023/10/02 11:54:01;;;;;;;18.40;9.10;;;29.10;99.90;;;;;;4973888;28;20173;-72
2023/10/02 11:56:27;;;;;;;15.85;8.88;;;29.30;99.90;;;;;;4973356;28;20288;-72
2023/10/02 11:58:53;;;;;;;17.02;10.00;;;29.30;99.90;;;;;;4973863;28;20260;-72
2023/10/02 12:01:21;;;;;;;18.95;9.90;;;29.30;99.90;;;;;;4973661;28;20169;-72
2023/10/02 12:03:50;;;;;;;16.85;8.90;;;29.30;99.90;;;;;;4973813;28;20170;-71
2023/10/02 12:06:16;;;;;;;15.50;8.15;;;29.30;99.90;;;;;;4973612;28;20711;-71
2023/10/02 12:08:44;;;;;;;15.52;8.48;;;29.40;99.90;;;;;;4974153;28;20272;-71
2023/10/02 12:11:12;;;;;;;15.60;9.05;;;29.50;99.90;;;;;;4973655;28;20669;-71
2023/10/02 12:13:37;;;;;;;14.02;8.23;;;29.80;99.90;;;;;;4973971;28;20178;-70
2023/10/02 12:16:05;;;;;;;19.75;9.20;;;30.00;99.90;;;;;;4973664;28;20631;-71
2023/10/02 12:18:33;;;;;;;17.13;9.45;;;30.10;99.90;;;;;;4973089;28;20261;-71
2023/10/02 12:20:59;;;;;;;20.02;9.98;;;30.30;99.90;;;;;;4974271;28;20192;-72
2023/10/02 12:23:25;;;;;;;19.02;9.10;;;30.20;99.90;;;;;;4974134;28;20177;-71
2023/10/02 12:25:51;;;;;;;14.65;8.77;;;30.10;99.90;;;;;;4973838;28;20174;-71
2023/10/02 12:28:17;;;;;;;15.57;9.40;;;30.10;99.90;;;;;;4973770;28;20557;-72
2023/10/02 12:30:42;;;;;;;17.85;9.02;;;30.20;99.90;;;;;;4973571;28;20190;-71
2023/10/02 12:33:09;;;;;;;17.80;9.27;;;30.40;99.90;;;;;;4974496;28;20174;-72
2023/10/02 12:35:37;;;;;;;15.07;9.05;;;30.60;99.90;;;;;;4973683;28;20288;-72
2023/10/02 12:38:03;;;;;;;16.02;8.50;;;30.70;99.90;;;;;;4973262;28;20170;-72
2023/10/02 12:40:33;;;;;;;17.23;9.77;;;30.80;99.90;;;;;;4972872;28;20621;-72
2023/10/02 12:43:01;;;;;;;15.50;8.73;;;30.90;99.90;;;;;;4972428;28;20196;-71
2023/10/02 12:45:30;;;;;;;17.27;9.13;;;30.80;99.90;;;;;;4972794;28;20633;-71
2023/10/02 12:47:55;;;;;;;15.88;8.90;;;30.70;99.90;;;;;;4972699;28;20244;-72
2023/10/02 12:50:21;;;;;;;17.23;8.93;;;30.80;99.90;;;;;;4972332;28;20209;-71
2023/10/02 12:52:47;;;;;;;17.67;8.48;;;30.90;99.90;;;;;;4972587;28;20174;-71
2023/10/02 12:55:13;;;;;;;16.35;8.80;;;31.10;99.90;;;;;;4972284;28;20208;-72
2023/10/02 12:57:39;;;;;;;15.77;9.20;;;31.30;99.90;;;;;;4972766;28;20170;-72
2023/10/02 13:00:16;;;;;;;17.30;9.27;;;31.40;99.90;;;;;;4972571;28;20256;-72
2023/10/02 13:02:42;;;;;;;17.08;9.52;;;31.20;99.90;;;;;;4972400;28;20268;-72
2023/10/02 13:05:09;;;;;;;17.13;9.32;;;31.00;99.90;;;;;;4972459;28;20597;-71
2023/10/02 13:07:35;;;;;;;15.80;8.65;;;31.00;99.90;;;;;;4972634;28;20181;-70
2023/10/02 13:10:01;;;;;;;15.63;8.57;;;30.90;99.90;;;;;;4972159;28;20248;-72
2023/10/02 13:12:26;;;;;;;16.50;8.73;;;31.00;99.90;;;;;;4972252;28;20283;-70
2023/10/02 13:14:54;;;;;;;17.65;8.88;;;31.00;99.90;;;;;;4972550;28;20218;-71
2023/10/02 13:17:20;;;;;;;16.70;9.77;;;30.80;99.90;;;;;;4972192;28;20177;-70
2023/10/02 13:19:45;;;;;;;17.92;9.25;;;30.70;99.90;;;;;;4972648;28;20199;-72
2023/10/02 13:22:11;;;;;;;18.55;9.93;;;30.60;99.90;;;;;;4972189;28;20172;-71
2023/10/02 13:24:37;;;;;;;15.98;9.30;;;30.50;99.90;;;;;;4972664;28;20197;-71
2023/10/02 13:27:02;;;;;;;19.60;8.43;;;30.30;99.90;;;;;;4972525;28;20184;-71
2023/10/02 13:29:28;;;;;;;15.05;9.00;;;30.10;99.90;;;;;;4972349;28;20201;-72
2023/10/02 13:31:53;;;;;;;23.75;10.00;;;29.90;99.90;;;;;;4972232;28;20178;-72
2023/10/02 13:34:20;;;;;;;18.67;9.75;;;29.80;99.90;;;;;;4975964;28;20541;-71
2023/10/02 13:36:46;;;;;;;18.48;10.40;;;29.60;99.90;;;;;;4976213;28;20605;-71
2023/10/02 13:39:16;;;;;;;21.17;9.68;;;29.70;99.90;;;;;;4975003;28;20728;-71
2023/10/02 13:41:42;;;;;;;15.90;8.90;;;29.70;99.90;;;;;;4976062;28;20193;-71
2023/10/02 13:44:08;;;;;;;17.90;9.50;;;29.70;99.90;;;;;;4975890;28;20237;-70
2023/10/02 13:46:38;;;;;;;16.20;9.13;;;29.70;99.90;;;;;;4975834;28;20561;-70
2023/10/02 13:49:04;;;;;;;16.83;9.40;;;29.80;99.90;;;;;;4975883;28;20213;-71
2023/10/02 13:51:31;;;;;;;20.88;10.60;;;29.90;99.90;;;;;;4975768;28;20193;-70
2023/10/02 13:53:57;;;;;;;18.88;9.65;;;29.90;99.90;;;;;;4975235;28;20178;-71
2023/10/02 13:56:27;;;;;;;16.23;9.27;;;30.00;99.90;;;;;;4975657;28;20212;-72